sensor_id;sensor_type;location;lat;lon;timestamp;P1;durP1;ratioP1;P2;durP2;ratioP2
75698;SDS011;64313;51.018;13.742;2024-01-11T00:00:28;23.38;;;10.20;;
75698;SDS011;64313;51.018;13.742;2024-01-11T00:02:53;22.58;;;9.88;;
75698;SDS011;64313;51.018;13.742;2024-01-11T00:05:19;26.52;;;10.30;;
75698;SDS011;64313;51.018;13.742;2024-01-11T00:07:44;21.63;;;9.45;;
75698;SDS011;64313;51.018;13.742;2024-01-11T00:10:09;18.98;;;8.93;;
75698;SDS011;64313;51.018;13.742;2024-01-11T00:12:35;21.85;;;8.52;;
75698;SDS011;64313;51.018;13.742;2024-01-11T00:15:00;21.60;;;9.05;;
75698;SDS011;64313;51.018;13.742;2024-01-11T00:17:25;24.45;;;9.30;;
75698;SDS011;64313;51.018;13.742;2024-01-11T00:19:51;23.52;;;9.10;;
75698;SDS011;64313;51.018;13.742;2024-01-11T00:22:17;21.27;;;9.57;;
75698;SDS011;64313;51.018;13.742;2024-01-11T00:24:42;21.60;;;8.55;;
75698;SDS011;64313;51.018;13.742;2024-01-11T00:27:08;24.65;;;9.30;;
75698;SDS011;64313;51.018;13.742;2024-01-11T00:29:34;21.65;;;9.35;;
75698;SDS011;64313;51.018;13.742;2024-01-11T00:32:00;21.25;;;9.50;;
75698;SDS011;64313;51.018;13.742;2024-01-11T00:34:26;20.33;;;8.23;;
75698;SDS011;64313;51.018;13.742;2024-01-11T00:36:51;19.77;;;8.50;;
75698;SDS011;64313;51.018;13.742;2024-01-11T00:39:16;21.45;;;9.30;;
75698;SDS011;64313;51.018;13.742;2024-01-11T00:41:42;25.30;;;9.57;;
75698;SDS011;64313;51.018;13.742;2024-01-11T00:44:07;20.55;;;9.45;;
75698;SDS011;64313;51.018;13.742;2024-01-11T00:46:32;22.63;;;9.00;;
75698;SDS011;64313;51.018;13.742;2024-01-11T00:51:24;23.27;;;8.73;;
75698;SDS011;64313;51.018;13.742;2024-01-11T00:53:49;21.63;;;8.65;;
75698;SDS011;64313;51.018;13.742;2024-01-11T00:56:18;22.55;;;9.30;;
75698;SDS011;64313;51.018;13.742;2024-01-11T00:58:44;24.92;;;9.93;;
75698;SDS011;64313;51.018;13.742;2024-01-11T01:01:10;21.25;;;9.13;;
75698;SDS011;64313;51.018;13.742;2024-01-11T01:03:36;21.67;;;9.10;;
75698;SDS011;64313;51.018;13.742;2024-01-11T01:06:01;24.80;;;9.85;;
75698;SDS011;64313;51.018;13.742;2024-01-11T01:08:27;23.30;;;10.23;;
75698;SDS011;64313;51.018;13.742;2024-01-11T01:10:53;22.98;;;9.88;;
75698;SDS011;64313;51.018;13.742;2024-01-11T01:13:18;23.38;;;9.82;;
75698;SDS011;64313;51.018;13.742;2024-01-11T01:15:43;22.65;;;9.35;;
75698;SDS011;64313;51.018;13.742;2024-01-11T01:18:09;20.77;;;9.50;;
75698;SDS011;64313;51.018;13.742;2024-01-11T01:20:34;23.13;;;9.70;;
75698;SDS011;64313;51.018;13.742;2024-01-11T01:22:59;18.13;;;8.70;;
75698;SDS011;64313;51.018;13.742;2024-01-11T01:25:24;19.98;;;8.70;;
75698;SDS011;64313;51.018;13.742;2024-01-11T01:27:50;20.73;;;8.85;;
75698;SDS011;64313;51.018;13.742;2024-01-11T01:30:16;22.67;;;8.88;;
75698;SDS011;64313;51.018;13.742;2024-01-11T01:32:41;20.02;;;8.77;;
75698;SDS011;64313;51.018;13.742;2024-01-11T01:35:06;21.85;;;9.05;;
75698;SDS011;64313;51.018;13.742;2024-01-11T01:37:32;21.63;;;9.25;;
75698;SDS011;64313;51.018;13.742;2024-01-11T01:39:58;24.33;;;9.80;;
75698;SDS011;64313;51.018;13.742;2024-01-11T01:42:23;22.33;;;9.75;;
75698;SDS011;64313;51.018;13.742;2024-01-11T01:44:48;21.13;;;9.15;;
75698;SDS011;64313;51.018;13.742;2024-01-11T01:47:14;23.75;;;10.10;;
75698;SDS011;64313;51.018;13.742;2024-01-11T01:49:39;22.85;;;9.63;;
75698;SDS011;64313;51.018;13.742;2024-01-11T01:52:05;23.83;;;10.32;;
75698;SDS011;64313;51.018;13.742;2024-01-11T01:54:32;26.20;;;9.48;;
75698;SDS011;64313;51.018;13.742;2024-01-11T01:56:58;23.23;;;10.15;;
75698;SDS011;64313;51.018;13.742;2024-01-11T01:59:25;20.70;;;9.65;;
75698;SDS011;64313;51.018;13.742;2024-01-11T02:01:51;24.25;;;9.65;;
75698;SDS011;64313;51.018;13.742;2024-01-11T02:04:17;24.05;;;9.40;;
75698;SDS011;64313;51.018;13.742;2024-01-11T02:06:44;20.63;;;9.00;;
75698;SDS011;64313;51.018;13.742;2024-01-11T02:09:11;23.55;;;9.73;;
75698;SDS011;64313;51.018;13.742;2024-01-11T02:11:38;24.00;;;9.90;;
75698;SDS011;64313;51.018;13.742;2024-01-11T02:14:04;26.73;;;10.13;;
75698;SDS011;64313;51.018;13.742;2024-01-11T02:16:29;23.88;;;10.13;;
75698;SDS011;64313;51.018;13.742;2024-01-11T02:18:55;23.55;;;9.77;;
75698;SDS011;64313;51.018;13.742;2024-01-11T02:21:20;22.13;;;10.18;;
75698;SDS011;64313;51.018;13.742;2024-01-11T02:24:03;24.42;;;10.55;;
75698;SDS011;64313;51.018;13.742;2024-01-11T02:26:29;27.38;;;9.45;;
75698;SDS011;64313;51.018;13.742;2024-01-11T02:28:55;21.50;;;8.50;;
75698;SDS011;64313;51.018;13.742;2024-01-11T02:31:20;20.88;;;8.20;;
75698;SDS011;64313;51.018;13.742;2024-01-11T02:33:46;20.50;;;8.23;;
75698;SDS011;64313;51.018;13.742;2024-01-11T02:36:11;20.05;;;8.25;;
75698;SDS011;64313;51.018;13.742;2024-01-11T02:38:38;16.60;;;7.45;;
75698;SDS011;64313;51.018;13.742;2024-01-11T02:41:06;19.65;;;7.88;;
75698;SDS011;64313;51.018;13.742;2024-01-11T02:43:31;21.13;;;8.25;;
75698;SDS011;64313;51.018;13.742;2024-01-11T02:45:57;22.13;;;8.60;;
75698;SDS011;64313;51.018;13.742;2024-01-11T02:48:26;22.67;;;8.20;;
75698;SDS011;64313;51.018;13.742;2024-01-11T02:50:53;17.20;;;7.47;;
75698;SDS011;64313;51.018;13.742;2024-01-11T02:53:18;19.13;;;7.72;;
75698;SDS011;64313;51.018;13.742;2024-01-11T02:55:44;17.10;;;7.45;;
75698;SDS011;64313;51.018;13.742;2024-01-11T02:58:09;20.33;;;7.68;;
75698;SDS011;64313;51.018;13.742;2024-01-11T03:00:34;22.05;;;8.02;;
75698;SDS011;64313;51.018;13.742;2024-01-11T03:03:00;20.63;;;7.63;;
75698;SDS011;64313;51.018;13.742;2024-01-11T03:05:25;17.60;;;7.65;;
75698;SDS011;64313;51.018;13.742;2024-01-11T03:07:50;20.70;;;8.43;;
75698;SDS011;64313;51.018;13.742;2024-01-11T03:10:16;16.25;;;7.25;;
75698;SDS011;64313;51.018;13.742;2024-01-11T03:12:41;17.98;;;7.38;;
75698;SDS011;64313;51.018;13.742;2024-01-11T03:15:07;17.52;;;7.05;;
75698;SDS011;64313;51.018;13.742;2024-01-11T03:17:32;17.13;;;7.32;;
75698;SDS011;64313;51.018;13.742;2024-01-11T03:19:58;16.92;;;6.95;;
75698;SDS011;64313;51.018;13.742;2024-01-11T03:22:24;18.38;;;7.50;;
75698;SDS011;64313;51.018;13.742;2024-01-11T03:24:50;19.88;;;7.38;;
75698;SDS011;64313;51.018;13.742;2024-01-11T03:27:15;17.02;;;7.43;;
75698;SDS011;64313;51.018;13.742;2024-01-11T03:29:40;18.35;;;8.07;;
75698;SDS011;64313;51.018;13.742;2024-01-11T03:32:06;20.05;;;7.18;;
75698;SDS011;64313;51.018;13.742;2024-01-11T03:34:31;16.45;;;6.93;;
75698;SDS011;64313;51.018;13.742;2024-01-11T03:36:57;17.90;;;7.40;;
75698;SDS011;64313;51.018;13.742;2024-01-11T03:39:23;17.60;;;7.07;;
75698;SDS011;64313;51.018;13.742;2024-01-11T03:41:50;15.68;;;6.88;;
75698;SDS011;64313;51.018;13.742;2024-01-11T03:44:15;18.08;;;7.55;;
75698;SDS011;64313;51.018;13.742;2024-01-11T03:46:40;20.70;;;7.85;;
75698;SDS011;64313;51.018;13.742;2024-01-11T03:49:06;16.52;;;6.93;;
75698;SDS011;64313;51.018;13.742;2024-01-11T03:51:32;18.48;;;7.63;;
75698;SDS011;64313;51.018;13.742;2024-01-11T03:53:58;17.60;;;6.85;;
75698;SDS011;64313;51.018;13.742;2024-01-11T03:56:23;18.00;;;7.57;;
75698;SDS011;64313;51.018;13.742;2024-01-11T03:58:49;20.20;;;8.02;;
75698;SDS011;64313;51.018;13.742;2024-01-11T04:01:14;21.15;;;8.20;;
75698;SDS011;64313;51.018;13.742;2024-01-11T04:03:41;18.45;;;7.95;;
75698;SDS011;64313;51.018;13.742;2024-01-11T04:06:06;18.50;;;7.95;;
75698;SDS011;64313;51.018;13.742;2024-01-11T04:08:32;19.73;;;8.20;;
75698;SDS011;64313;51.018;13.742;2024-01-11T04:10:57;20.02;;;8.73;;
75698;SDS011;64313;51.018;13.742;2024-01-11T04:13:23;21.33;;;9.27;;
75698;SDS011;64313;51.018;13.742;2024-01-11T04:15:49;18.67;;;8.20;;
75698;SDS011;64313;51.018;13.742;2024-01-11T04:18:14;23.73;;;9.57;;
75698;SDS011;64313;51.018;13.742;2024-01-11T04:20:39;25.52;;;9.45;;
75698;SDS011;64313;51.018;13.742;2024-01-11T04:23:05;21.75;;;9.63;;
75698;SDS011;64313;51.018;13.742;2024-01-11T04:25:30;19.10;;;8.25;;
75698;SDS011;64313;51.018;13.742;2024-01-11T04:27:55;18.45;;;8.13;;
75698;SDS011;64313;51.018;13.742;2024-01-11T04:30:21;22.45;;;9.70;;
75698;SDS011;64313;51.018;13.742;2024-01-11T04:32:46;21.85;;;8.45;;
75698;SDS011;64313;51.018;13.742;2024-01-11T04:35:11;19.25;;;8.52;;
75698;SDS011;64313;51.018;13.742;2024-01-11T04:37:37;22.48;;;8.90;;
75698;SDS011;64313;51.018;13.742;2024-01-11T04:40:02;21.80;;;9.00;;
75698;SDS011;64313;51.018;13.742;2024-01-11T04:42:28;21.95;;;7.97;;
75698;SDS011;64313;51.018;13.742;2024-01-11T04:44:54;22.08;;;9.20;;
75698;SDS011;64313;51.018;13.742;2024-01-11T04:47:19;22.30;;;9.25;;
75698;SDS011;64313;51.018;13.742;2024-01-11T04:49:44;20.90;;;8.65;;
75698;SDS011;64313;51.018;13.742;2024-01-11T04:52:10;22.73;;;9.05;;
75698;SDS011;64313;51.018;13.742;2024-01-11T04:54:35;22.38;;;9.02;;
75698;SDS011;64313;51.018;13.742;2024-01-11T04:57:01;21.42;;;8.32;;
75698;SDS011;64313;51.018;13.742;2024-01-11T04:59:26;21.90;;;8.57;;
75698;SDS011;64313;51.018;13.742;2024-01-11T05:01:51;20.65;;;8.10;;
75698;SDS011;64313;51.018;13.742;2024-01-11T05:04:18;18.75;;;7.80;;
75698;SDS011;64313;51.018;13.742;2024-01-11T05:06:43;19.60;;;8.48;;
75698;SDS011;64313;51.018;13.742;2024-01-11T05:09:08;21.02;;;8.10;;
75698;SDS011;64313;51.018;13.742;2024-01-11T05:11:33;21.92;;;8.93;;
75698;SDS011;64313;51.018;13.742;2024-01-11T05:13:59;22.45;;;9.57;;
75698;SDS011;64313;51.018;13.742;2024-01-11T05:16:27;23.13;;;8.80;;
75698;SDS011;64313;51.018;13.742;2024-01-11T05:18:54;22.20;;;8.48;;
75698;SDS011;64313;51.018;13.742;2024-01-11T05:21:21;18.48;;;7.65;;
75698;SDS011;64313;51.018;13.742;2024-01-11T05:23:46;18.48;;;7.78;;
75698;SDS011;64313;51.018;13.742;2024-01-11T05:26:14;16.63;;;6.63;;
75698;SDS011;64313;51.018;13.742;2024-01-11T05:28:40;17.27;;;7.30;;
75698;SDS011;64313;51.018;13.742;2024-01-11T05:31:09;15.98;;;6.90;;
75698;SDS011;64313;51.018;13.742;2024-01-11T05:33:39;17.05;;;6.40;;
75698;SDS011;64313;51.018;13.742;2024-01-11T05:36:05;17.98;;;6.82;;
75698;SDS011;64313;51.018;13.742;2024-01-11T05:38:31;16.35;;;6.95;;
75698;SDS011;64313;51.018;13.742;2024-01-11T05:40:56;15.98;;;6.85;;
75698;SDS011;64313;51.018;13.742;2024-01-11T05:43:22;14.90;;;6.32;;
75698;SDS011;64313;51.018;13.742;2024-01-11T05:45:48;17.10;;;6.22;;
75698;SDS011;64313;51.018;13.742;2024-01-11T05:48:15;16.17;;;6.15;;
75698;SDS011;64313;51.018;13.742;2024-01-11T05:50:40;17.60;;;7.60;;
75698;SDS011;64313;51.018;13.742;2024-01-11T05:53:06;17.15;;;6.90;;
75698;SDS011;64313;51.018;13.742;2024-01-11T05:55:31;16.25;;;6.45;;
75698;SDS011;64313;51.018;13.742;2024-01-11T05:57:56;16.38;;;6.50;;
75698;SDS011;64313;51.018;13.742;2024-01-11T06:00:22;16.85;;;7.47;;
75698;SDS011;64313;51.018;13.742;2024-01-11T06:02:48;16.48;;;7.05;;
75698;SDS011;64313;51.018;13.742;2024-01-11T06:05:13;16.85;;;7.13;;
75698;SDS011;64313;51.018;13.742;2024-01-11T06:07:38;18.40;;;6.65;;
75698;SDS011;64313;51.018;13.742;2024-01-11T06:10:04;18.60;;;7.55;;
75698;SDS011;64313;51.018;13.742;2024-01-11T06:12:31;18.00;;;7.35;;
75698;SDS011;64313;51.018;13.742;2024-01-11T06:14:56;15.40;;;6.68;;
75698;SDS011;64313;51.018;13.742;2024-01-11T06:17:22;16.58;;;6.85;;
75698;SDS011;64313;51.018;13.742;2024-01-11T06:19:48;17.92;;;7.43;;
75698;SDS011;64313;51.018;13.742;2024-01-11T06:22:14;20.27;;;8.23;;
75698;SDS011;64313;51.018;13.742;2024-01-11T06:24:39;18.85;;;7.47;;
75698;SDS011;64313;51.018;13.742;2024-01-11T06:27:04;24.98;;;9.38;;
75698;SDS011;64313;51.018;13.742;2024-01-11T06:29:30;20.50;;;9.25;;
75698;SDS011;64313;51.018;13.742;2024-01-11T06:31:55;25.23;;;10.15;;
75698;SDS011;64313;51.018;13.742;2024-01-11T06:34:20;22.73;;;8.85;;
75698;SDS011;64313;51.018;13.742;2024-01-11T06:36:46;25.38;;;8.93;;
75698;SDS011;64313;51.018;13.742;2024-01-11T06:39:14;22.88;;;8.73;;
75698;SDS011;64313;51.018;13.742;2024-01-11T06:41:39;20.05;;;8.45;;
75698;SDS011;64313;51.018;13.742;2024-01-11T06:44:05;28.98;;;11.00;;
75698;SDS011;64313;51.018;13.742;2024-01-11T06:46:30;41.47;;;14.70;;
75698;SDS011;64313;51.018;13.742;2024-01-11T06:48:55;38.90;;;14.30;;
75698;SDS011;64313;51.018;13.742;2024-01-11T06:51:21;36.00;;;13.32;;
75698;SDS011;64313;51.018;13.742;2024-01-11T06:53:48;27.10;;;12.60;;
75698;SDS011;64313;51.018;13.742;2024-01-11T07:00:01;29.00;;;10.75;;
75698;SDS011;64313;51.018;13.742;2024-01-11T07:02:26;20.88;;;9.27;;
75698;SDS011;64313;51.018;13.742;2024-01-11T07:04:51;21.42;;;8.85;;
75698;SDS011;64313;51.018;13.742;2024-01-11T07:07:16;25.70;;;9.93;;
75698;SDS011;64313;51.018;13.742;2024-01-11T07:09:42;22.73;;;9.95;;
75698;SDS011;64313;51.018;13.742;2024-01-11T07:12:07;17.38;;;7.70;;
75698;SDS011;64313;51.018;13.742;2024-01-11T07:14:32;19.48;;;7.75;;
75698;SDS011;64313;51.018;13.742;2024-01-11T07:16:58;17.23;;;7.68;;
75698;SDS011;64313;51.018;13.742;2024-01-11T07:19:23;21.05;;;8.20;;
75698;SDS011;64313;51.018;13.742;2024-01-11T07:21:48;20.88;;;8.15;;
75698;SDS011;64313;51.018;13.742;2024-01-11T07:24:14;21.67;;;8.40;;
75698;SDS011;64313;51.018;13.742;2024-01-11T07:26:40;19.13;;;8.38;;
75698;SDS011;64313;51.018;13.742;2024-01-11T07:29:05;21.95;;;8.57;;
75698;SDS011;64313;51.018;13.742;2024-01-11T07:31:31;21.98;;;8.88;;
75698;SDS011;64313;51.018;13.742;2024-01-11T07:33:56;24.10;;;8.15;;
75698;SDS011;64313;51.018;13.742;2024-01-11T07:36:21;24.38;;;9.05;;
75698;SDS011;64313;51.018;13.742;2024-01-11T07:38:47;19.77;;;7.93;;
75698;SDS011;64313;51.018;13.742;2024-01-11T07:41:12;19.58;;;8.35;;
75698;SDS011;64313;51.018;13.742;2024-01-11T07:43:38;21.55;;;8.38;;
75698;SDS011;64313;51.018;13.742;2024-01-11T07:46:04;22.83;;;9.40;;
75698;SDS011;64313;51.018;13.742;2024-01-11T07:48:31;25.85;;;9.35;;
75698;SDS011;64313;51.018;13.742;2024-01-11T07:50:56;25.38;;;9.73;;
75698;SDS011;64313;51.018;13.742;2024-01-11T07:53:22;21.58;;;9.45;;
75698;SDS011;64313;51.018;13.742;2024-01-11T07:55:48;25.25;;;9.50;;
75698;SDS011;64313;51.018;13.742;2024-01-11T07:58:13;21.15;;;9.13;;
75698;SDS011;64313;51.018;13.742;2024-01-11T08:00:40;26.08;;;8.85;;
75698;SDS011;64313;51.018;13.742;2024-01-11T08:03:05;22.85;;;9.98;;
75698;SDS011;64313;51.018;13.742;2024-01-11T08:05:30;21.30;;;9.57;;
75698;SDS011;64313;51.018;13.742;2024-01-11T08:07:56;28.48;;;9.73;;
75698;SDS011;64313;51.018;13.742;2024-01-11T08:10:21;24.35;;;10.07;;
75698;SDS011;64313;51.018;13.742;2024-01-11T08:12:46;21.35;;;8.98;;
75698;SDS011;64313;51.018;13.742;2024-01-11T08:15:12;23.85;;;8.65;;
75698;SDS011;64313;51.018;13.742;2024-01-11T08:17:38;21.98;;;8.82;;
75698;SDS011;64313;51.018;13.742;2024-01-11T08:20:04;22.25;;;8.73;;
75698;SDS011;64313;51.018;13.742;2024-01-11T08:22:33;24.95;;;9.55;;
75698;SDS011;64313;51.018;13.742;2024-01-11T08:25:00;18.77;;;8.70;;
75698;SDS011;64313;51.018;13.742;2024-01-11T08:27:26;27.85;;;10.90;;
75698;SDS011;64313;51.018;13.742;2024-01-11T08:29:51;23.13;;;9.70;;
75698;SDS011;64313;51.018;13.742;2024-01-11T08:32:16;21.35;;;9.75;;
75698;SDS011;64313;51.018;13.742;2024-01-11T08:34:42;27.23;;;10.75;;
75698;SDS011;64313;51.018;13.742;2024-01-11T08:37:07;21.77;;;9.18;;
75698;SDS011;64313;51.018;13.742;2024-01-11T08:39:32;22.35;;;10.05;;
75698;SDS011;64313;51.018;13.742;2024-01-11T08:41:58;19.35;;;9.20;;
75698;SDS011;64313;51.018;13.742;2024-01-11T08:44:24;18.05;;;9.02;;
75698;SDS011;64313;51.018;13.742;2024-01-11T08:46:49;20.17;;;9.70;;
75698;SDS011;64313;51.018;13.742;2024-01-11T08:49:14;24.45;;;11.45;;
75698;SDS011;64313;51.018;13.742;2024-01-11T08:51:40;25.33;;;11.90;;
75698;SDS011;64313;51.018;13.742;2024-01-11T08:54:06;22.65;;;10.23;;
75698;SDS011;64313;51.018;13.742;2024-01-11T08:56:33;21.08;;;10.23;;
75698;SDS011;64313;51.018;13.742;2024-01-11T08:58:59;23.98;;;10.45;;
75698;SDS011;64313;51.018;13.742;2024-01-11T09:01:24;22.20;;;10.93;;
75698;SDS011;64313;51.018;13.742;2024-01-11T09:03:50;23.65;;;10.88;;
75698;SDS011;64313;51.018;13.742;2024-01-11T09:06:15;23.27;;;10.55;;
75698;SDS011;64313;51.018;13.742;2024-01-11T09:08:40;21.98;;;9.90;;
75698;SDS011;64313;51.018;13.742;2024-01-11T09:11:07;21.73;;;9.88;;
75698;SDS011;64313;51.018;13.742;2024-01-11T09:13:32;21.25;;;10.15;;
75698;SDS011;64313;51.018;13.742;2024-01-11T09:15:57;19.73;;;9.43;;
75698;SDS011;64313;51.018;13.742;2024-01-11T09:18:23;20.42;;;9.55;;
75698;SDS011;64313;51.018;13.742;2024-01-11T09:20:48;24.77;;;9.20;;
75698;SDS011;64313;51.018;13.742;2024-01-11T09:23:14;20.38;;;10.13;;
75698;SDS011;64313;51.018;13.742;2024-01-11T09:25:39;20.45;;;9.93;;
75698;SDS011;64313;51.018;13.742;2024-01-11T09:28:05;21.80;;;10.60;;
75698;SDS011;64313;51.018;13.742;2024-01-11T09:30:30;24.85;;;10.13;;
75698;SDS011;64313;51.018;13.742;2024-01-11T09:32:56;20.73;;;9.80;;
75698;SDS011;64313;51.018;13.742;2024-01-11T09:35:21;20.38;;;9.57;;
75698;SDS011;64313;51.018;13.742;2024-01-11T09:37:48;21.55;;;9.93;;
75698;SDS011;64313;51.018;13.742;2024-01-11T09:40:13;19.10;;;9.70;;
75698;SDS011;64313;51.018;13.742;2024-01-11T09:42:39;20.60;;;10.45;;
75698;SDS011;64313;51.018;13.742;2024-01-11T09:45:09;24.70;;;11.23;;
75698;SDS011;64313;51.018;13.742;2024-01-11T09:47:37;19.42;;;10.57;;
75698;SDS011;64313;51.018;13.742;2024-01-11T09:50:04;20.90;;;10.32;;
75698;SDS011;64313;51.018;13.742;2024-01-11T09:52:30;24.48;;;11.50;;
75698;SDS011;64313;51.018;13.742;2024-01-11T09:54:59;22.92;;;11.02;;
75698;SDS011;64313;51.018;13.742;2024-01-11T09:57:26;26.73;;;11.90;;
75698;SDS011;64313;51.018;13.742;2024-01-11T10:00:00;30.55;;;13.18;;
75698;SDS011;64313;51.018;13.742;2024-01-11T10:02:55;27.95;;;12.82;;
75698;SDS011;64313;51.018;13.742;2024-01-11T10:05:21;31.20;;;13.82;;
75698;SDS011;64313;51.018;13.742;2024-01-11T10:07:47;29.27;;;14.20;;
75698;SDS011;64313;51.018;13.742;2024-01-11T10:10:12;30.95;;;14.35;;
75698;SDS011;64313;51.018;13.742;2024-01-11T10:12:40;32.45;;;15.45;;
75698;SDS011;64313;51.018;13.742;2024-01-11T10:15:06;33.33;;;15.45;;
75698;SDS011;64313;51.018;13.742;2024-01-11T10:17:34;31.17;;;13.95;;
75698;SDS011;64313;51.018;13.742;2024-01-11T10:20:01;26.65;;;12.85;;
75698;SDS011;64313;51.018;13.742;2024-01-11T10:22:27;31.20;;;13.60;;
75698;SDS011;64313;51.018;13.742;2024-01-11T10:25:07;29.05;;;13.43;;
75698;SDS011;64313;51.018;13.742;2024-01-11T10:27:37;36.10;;;15.65;;
75698;SDS011;64313;51.018;13.742;2024-01-11T10:30:04;32.83;;;16.42;;
75698;SDS011;64313;51.018;13.742;2024-01-11T10:32:32;29.35;;;14.93;;
75698;SDS011;64313;51.018;13.742;2024-01-11T10:34:59;33.05;;;13.98;;
75698;SDS011;64313;51.018;13.742;2024-01-11T10:37:27;30.83;;;14.57;;
75698;SDS011;64313;51.018;13.742;2024-01-11T10:39:53;31.10;;;13.90;;
75698;SDS011;64313;51.018;13.742;2024-01-11T10:42:22;26.33;;;13.18;;
75698;SDS011;64313;51.018;13.742;2024-01-11T10:44:49;30.70;;;13.70;;
75698;SDS011;64313;51.018;13.742;2024-01-11T10:47:23;34.20;;;14.35;;
75698;SDS011;64313;51.018;13.742;2024-01-11T10:49:52;28.83;;;13.32;;
75698;SDS011;64313;51.018;13.742;2024-01-11T10:52:22;33.88;;;14.57;;
75698;SDS011;64313;51.018;13.742;2024-01-11T10:54:53;29.60;;;13.70;;
75698;SDS011;64313;51.018;13.742;2024-01-11T10:57:19;33.10;;;14.27;;
75698;SDS011;64313;51.018;13.742;2024-01-11T10:59:45;30.70;;;13.63;;
75698;SDS011;64313;51.018;13.742;2024-01-11T11:02:16;34.17;;;14.57;;
75698;SDS011;64313;51.018;13.742;2024-01-11T11:04:50;31.48;;;14.80;;
75698;SDS011;64313;51.018;13.742;2024-01-11T11:07:20;35.72;;;15.65;;
75698;SDS011;64313;51.018;13.742;2024-01-11T11:09:45;35.85;;;16.42;;
75698;SDS011;64313;51.018;13.742;2024-01-11T11:12:13;36.58;;;16.92;;
75698;SDS011;64313;51.018;13.742;2024-01-11T11:14:46;39.30;;;17.73;;
75698;SDS011;64313;51.018;13.742;2024-01-11T11:17:22;42.53;;;19.98;;
75698;SDS011;64313;51.018;13.742;2024-01-11T11:19:48;38.90;;;17.52;;
75698;SDS011;64313;51.018;13.742;2024-01-11T11:22:13;40.65;;;18.90;;
75698;SDS011;64313;51.018;13.742;2024-01-11T11:24:40;43.45;;;19.08;;
75698;SDS011;64313;51.018;13.742;2024-01-11T11:27:05;45.03;;;20.45;;
75698;SDS011;64313;51.018;13.742;2024-01-11T11:29:32;43.08;;;20.27;;
75698;SDS011;64313;51.018;13.742;2024-01-11T11:31:57;50.35;;;22.17;;
75698;SDS011;64313;51.018;13.742;2024-01-11T11:34:39;49.58;;;21.58;;
75698;SDS011;64313;51.018;13.742;2024-01-11T11:37:09;49.35;;;21.17;;
75698;SDS011;64313;51.018;13.742;2024-01-11T11:39:35;51.33;;;22.40;;
75698;SDS011;64313;51.018;13.742;2024-01-11T11:42:01;51.53;;;21.65;;
75698;SDS011;64313;51.018;13.742;2024-01-11T11:44:26;48.60;;;22.35;;
75698;SDS011;64313;51.018;13.742;2024-01-11T11:46:52;52.90;;;23.00;;
75698;SDS011;64313;51.018;13.742;2024-01-11T11:49:18;54.97;;;22.67;;
75698;SDS011;64313;51.018;13.742;2024-01-11T11:51:43;49.42;;;21.00;;
75698;SDS011;64313;51.018;13.742;2024-01-11T11:54:09;48.55;;;22.10;;
75698;SDS011;64313;51.018;13.742;2024-01-11T11:56:34;44.25;;;19.58;;
75698;SDS011;64313;51.018;13.742;2024-01-11T11:59:00;51.72;;;21.75;;
75698;SDS011;64313;51.018;13.742;2024-01-11T12:01:27;41.63;;;18.55;;
75698;SDS011;64313;51.018;13.742;2024-01-11T12:03:53;30.20;;;11.85;;
75698;SDS011;64313;51.018;13.742;2024-01-11T12:06:19;23.20;;;11.18;;
75698;SDS011;64313;51.018;13.742;2024-01-11T12:08:46;26.40;;;11.15;;
75698;SDS011;64313;51.018;13.742;2024-01-11T12:11:13;25.52;;;11.07;;
75698;SDS011;64313;51.018;13.742;2024-01-11T12:13:39;26.52;;;10.88;;
75698;SDS011;64313;51.018;13.742;2024-01-11T12:16:05;26.98;;;11.43;;
75698;SDS011;64313;51.018;13.742;2024-01-11T12:18:30;27.67;;;11.35;;
75698;SDS011;64313;51.018;13.742;2024-01-11T12:20:56;27.13;;;11.93;;
75698;SDS011;64313;51.018;13.742;2024-01-11T12:23:21;28.88;;;12.68;;
75698;SDS011;64313;51.018;13.742;2024-01-11T12:25:47;24.88;;;10.70;;
75698;SDS011;64313;51.018;13.742;2024-01-11T12:28:12;26.48;;;11.68;;
75698;SDS011;64313;51.018;13.742;2024-01-11T12:30:39;29.65;;;12.05;;
75698;SDS011;64313;51.018;13.742;2024-01-11T12:33:05;26.67;;;12.02;;
75698;SDS011;64313;51.018;13.742;2024-01-11T12:35:30;27.95;;;11.82;;
75698;SDS011;64313;51.018;13.742;2024-01-11T12:38:00;26.40;;;11.52;;
75698;SDS011;64313;51.018;13.742;2024-01-11T12:40:29;26.00;;;12.25;;
75698;SDS011;64313;51.018;13.742;2024-01-11T12:42:57;27.27;;;11.52;;
75698;SDS011;64313;51.018;13.742;2024-01-11T12:47:51;22.58;;;9.48;;
75698;SDS011;64313;51.018;13.742;2024-01-11T12:50:16;32.08;;;12.50;;
75698;SDS011;64313;51.018;13.742;2024-01-11T12:55:08;27.83;;;12.00;;
75698;SDS011;64313;51.018;13.742;2024-01-11T12:57:43;30.05;;;13.13;;
75698;SDS011;64313;51.018;13.742;2024-01-11T13:00:09;34.55;;;12.80;;
75698;SDS011;64313;51.018;13.742;2024-01-11T13:02:35;26.63;;;12.52;;
75698;SDS011;64313;51.018;13.742;2024-01-11T13:05:01;32.50;;;12.82;;
75698;SDS011;64313;51.018;13.742;2024-01-11T13:07:27;32.60;;;13.75;;
75698;SDS011;64313;51.018;13.742;2024-01-11T13:09:53;31.67;;;14.20;;
75698;SDS011;64313;51.018;13.742;2024-01-11T13:12:18;31.27;;;12.93;;
75698;SDS011;64313;51.018;13.742;2024-01-11T13:14:45;33.30;;;13.13;;
75698;SDS011;64313;51.018;13.742;2024-01-11T13:17:11;32.03;;;13.75;;
75698;SDS011;64313;51.018;13.742;2024-01-11T13:19:36;31.92;;;13.68;;
75698;SDS011;64313;51.018;13.742;2024-01-11T13:22:02;33.60;;;12.98;;
75698;SDS011;64313;51.018;13.742;2024-01-11T13:24:27;32.67;;;13.55;;
75698;SDS011;64313;51.018;13.742;2024-01-11T13:26:53;32.58;;;13.90;;
75698;SDS011;64313;51.018;13.742;2024-01-11T13:29:18;31.55;;;14.15;;
75698;SDS011;64313;51.018;13.742;2024-01-11T13:32:09;31.05;;;14.07;;
75698;SDS011;64313;51.018;13.742;2024-01-11T13:34:35;30.20;;;13.15;;
75698;SDS011;64313;51.018;13.742;2024-01-11T13:37:01;32.45;;;13.93;;
75698;SDS011;64313;51.018;13.742;2024-01-11T13:39:27;30.80;;;13.43;;
75698;SDS011;64313;51.018;13.742;2024-01-11T13:41:53;30.35;;;11.52;;
75698;SDS011;64313;51.018;13.742;2024-01-11T13:44:18;30.48;;;13.80;;
75698;SDS011;64313;51.018;13.742;2024-01-11T13:46:43;31.42;;;12.85;;
75698;SDS011;64313;51.018;13.742;2024-01-11T13:49:09;34.33;;;14.15;;
75698;SDS011;64313;51.018;13.742;2024-01-11T13:51:34;31.40;;;13.93;;
75698;SDS011;64313;51.018;13.742;2024-01-11T13:54:00;33.63;;;13.40;;
75698;SDS011;64313;51.018;13.742;2024-01-11T13:56:26;32.20;;;13.57;;
75698;SDS011;64313;51.018;13.742;2024-01-11T13:58:52;36.38;;;14.52;;
75698;SDS011;64313;51.018;13.742;2024-01-11T14:01:17;31.70;;;14.18;;
75698;SDS011;64313;51.018;13.742;2024-01-11T14:03:43;28.50;;;12.95;;
75698;SDS011;64313;51.018;13.742;2024-01-11T14:06:08;28.25;;;12.05;;
75698;SDS011;64313;51.018;13.742;2024-01-11T14:08:33;29.65;;;12.77;;
75698;SDS011;64313;51.018;13.742;2024-01-11T14:10:59;29.15;;;12.65;;
75698;SDS011;64313;51.018;13.742;2024-01-11T14:13:24;34.03;;;13.65;;
75698;SDS011;64313;51.018;13.742;2024-01-11T14:15:49;30.40;;;12.60;;
75698;SDS011;64313;51.018;13.742;2024-01-11T14:18:16;32.33;;;12.60;;
75698;SDS011;64313;51.018;13.742;2024-01-11T14:20:42;31.33;;;13.13;;